Time;durP1;ratioP1;P1;durP2;ratioP2;P2;SDS_P1;SDS_P2;PMS_P1;PMS_P2;Temp;Humidity;BMP_temperature;BMP_pressure;BME280_temperature;BME280_humidity;BME280_pressure;Samples;Min_cycle;Max_cycle;Signal;HPM_P1;HPM_P2
2022/08/26 00:01:35;;;;;;;0.50;0.50;;;17.10;96.10;;;;;;5037156;28;20520;-66
2022/08/26 00:04:01;;;;;;;0.43;0.43;;;17.10;95.80;;;;;;5036960;28;20408;-66
2022/08/26 00:06:29;;;;;;;0.67;0.67;;;17.10;95.80;;;;;;5036723;28;20894;-66
2022/08/26 00:08:56;;;;;;;0.80;0.73;;;17.10;95.80;;;;;;5037152;28;20402;-66
2022/08/26 00:11:21;;;;;;;0.40;0.40;;;17.00;95.50;;;;;;5036984;28;20429;-66
2022/08/26 00:13:47;;;;;;;0.57;0.57;;;17.00;95.60;;;;;;5036976;28;20463;-66
2022/08/26 00:16:13;;;;;;;1.17;1.00;;;17.00;95.90;;;;;;5036777;28;20174;-66
2022/08/26 00:18:39;;;;;;;1.00;1.00;;;16.90;95.80;;;;;;5036693;28;20236;-66
2022/08/26 00:21:05;;;;;;;0.60;0.53;;;16.90;96.10;;;;;;5036773;28;20489;-66
2022/08/26 00:23:31;;;;;;;0.70;0.70;;;16.90;96.10;;;;;;5036655;28;20170;-66
2022/08/26 00:25:57;;;;;;;0.93;0.93;;;17.00;96.00;;;;;;5035106;28;20487;-67
2022/08/26 00:28:23;;;;;;;0.40;0.40;;;17.00;96.00;;;;;;5036767;28;20166;-66
2022/08/26 00:30:48;;;;;;;0.83;0.60;;;17.10;95.80;;;;;;5036430;28;20201;-66
2022/08/26 00:33:16;;;;;;;0.80;0.80;;;17.00;95.80;;;;;;5036493;28;20173;-66
2022/08/26 00:35:42;;;;;;;0.83;0.70;;;17.00;95.90;;;;;;5036351;28;20177;-66
2022/08/26 00:38:08;;;;;;;0.63;0.63;;;17.00;95.90;;;;;;5036278;28;20981;-66
2022/08/26 00:40:44;;;;;;;0.50;0.50;;;16.90;96.10;;;;;;5036414;28;20492;-66
2022/08/26 00:43:11;;;;;;;0.70;0.70;;;16.80;95.80;;;;;;5034987;28;20204;-67
2022/08/26 00:45:55;;;;;;;0.40;0.40;;;16.80;96.00;;;;;;5036314;28;20441;-66
2022/08/26 00:48:24;;;;;;;1.07;1.00;;;16.90;96.10;;;;;;5036217;28;20393;-66
2022/08/26 00:50:53;;;;;;;0.97;0.97;;;16.90;96.20;;;;;;5036133;28;20409;-66
2022/08/26 00:53:21;;;;;;;0.70;0.70;;;16.90;96.00;;;;;;5036103;28;20398;-66
2022/08/26 00:56:09;;;;;;;0.93;0.90;;;16.90;95.90;;;;;;5036086;28;20464;-66
2022/08/26 00:58:37;;;;;;;0.70;0.70;;;16.90;96.00;;;;;;5034935;28;20436;-66
2022/08/26 01:01:03;;;;;;;0.63;0.60;;;17.00;96.50;;;;;;5035860;28;20406;-66
2022/08/26 01:03:32;;;;;;;0.50;0.50;;;17.00;96.00;;;;;;5035916;28;20402;-67
2022/08/26 01:06:00;;;;;;;1.37;1.27;;;16.90;95.90;;;;;;5035715;28;20456;-66
2022/08/26 01:08:26;;;;;;;1.00;1.00;;;16.90;95.90;;;;;;5036036;28;20412;-66
2022/08/26 01:10:54;;;;;;;0.50;0.50;;;16.80;96.20;;;;;;5035825;28;20394;-66
2022/08/26 01:13:20;;;;;;;1.43;1.40;;;16.80;96.30;;;;;;5035716;28;20401;-66
2022/08/26 01:15:51;;;;;;;0.97;0.97;;;16.80;96.70;;;;;;5035933;28;20413;-66
2022/08/26 01:18:17;;;;;;;1.00;1.00;;;16.80;96.50;;;;;;5035741;28;20444;-66
2022/08/26 01:21:02;;;;;;;1.23;1.13;;;16.90;96.30;;;;;;5035832;28;20409;-66
2022/08/26 01:23:32;;;;;;;0.73;0.73;;;16.90;96.20;;;;;;5035563;28;20161;-66
2022/08/26 01:26:05;;;;;;;1.33;1.23;;;16.90;96.50;;;;;;5035674;28;20481;-66
2022/08/26 01:28:33;;;;;;;0.80;0.80;;;16.90;96.50;;;;;;5035502;28;20409;-66
2022/08/26 01:31:02;;;;;;;0.80;0.80;;;16.70;96.50;;;;;;5035478;28;20472;-66
2022/08/26 01:33:44;;;;;;;0.40;0.40;;;16.70;96.90;;;;;;5035432;28;20774;-66
2022/08/26 01:36:11;;;;;;;1.33;0.60;;;16.70;96.70;;;;;;5035166;28;20489;-66
2022/08/26 01:38:37;;;;;;;0.73;0.73;;;16.70;96.60;;;;;;5035458;28;20419;-66
2022/08/26 01:41:03;;;;;;;0.70;0.60;;;16.70;96.80;;;;;;5035166;28;20428;-66
2022/08/26 01:43:31;;;;;;;0.80;0.80;;;16.70;97.10;;;;;;5035156;28;20413;-66
2022/08/26 01:45:57;;;;;;;1.67;1.30;;;16.70;97.00;;;;;;5034926;28;20444;-66
2022/08/26 01:48:27;;;;;;;0.60;0.60;;;16.70;97.10;;;;;;5035276;28;20822;-66
2022/08/26 01:50:53;;;;;;;0.97;0.93;;;16.70;96.50;;;;;;5035215;28;20913;-66
2022/08/26 01:53:21;;;;;;;0.60;0.60;;;16.80;96.50;;;;;;5034980;28;20406;-66
2022/08/26 01:55:50;;;;;;;1.10;1.00;;;16.90;96.30;;;;;;5034839;28;20890;-66
2022/08/26 01:58:21;;;;;;;1.20;1.00;;;16.90;96.90;;;;;;5034976;28;20412;-66
2022/08/26 02:00:47;;;;;;;0.70;0.70;;;16.90;96.90;;;;;;5034915;28;20412;-66
2022/08/26 02:03:17;;;;;;;1.07;0.80;;;16.90;97.00;;;;;;5034928;28;20496;-66
2022/08/26 02:05:53;;;;;;;1.70;1.30;;;16.80;96.80;;;;;;5034574;28;20448;-66
2022/08/26 02:08:24;;;;;;;0.40;0.40;;;16.70;96.80;;;;;;5034845;28;20398;-66
2022/08/26 02:10:50;;;;;;;0.60;0.60;;;16.70;96.90;;;;;;5033916;28;20483;-66
2022/08/26 02:13:16;;;;;;;0.60;0.60;;;16.70;97.20;;;;;;5034499;28;20868;-66
2022/08/26 02:15:43;;;;;;;0.80;0.80;;;16.70;97.20;;;;;;5034751;28;20265;-66
2022/08/26 02:18:10;;;;;;;0.60;0.60;;;16.70;96.90;;;;;;5034553;28;20178;-67
2022/08/26 02:20:36;;;;;;;0.80;0.80;;;16.80;96.80;;;;;;5034400;28;20492;-66
2022/08/26 02:23:02;;;;;;;1.00;1.00;;;16.80;96.70;;;;;;5034859;28;20464;-66
2022/08/26 02:25:53;;;;;;;0.40;0.40;;;16.90;96.70;;;;;;5034422;28;20953;-66
2022/08/26 02:28:19;;;;;;;1.10;1.10;;;16.90;96.80;;;;;;5025845;28;20416;-66
2022/08/26 02:30:45;;;;;;;0.80;0.80;;;16.80;96.70;;;;;;5034143;28;20457;-66
2022/08/26 02:33:11;;;;;;;1.30;1.30;;;16.70;96.30;;;;;;5034191;28;20201;-66
2022/08/26 02:35:37;;;;;;;1.37;1.27;;;16.60;96.50;;;;;;5034305;28;20409;-66
2022/08/26 02:38:05;;;;;;;0.80;0.73;;;16.70;96.70;;;;;;5034148;28;20182;-66
2022/08/26 02:40:39;;;;;;;0.77;0.77;;;16.60;96.80;;;;;;5034244;28;20398;-66
2022/08/26 02:43:05;;;;;;;1.00;1.00;;;16.50;96.70;;;;;;5034004;28;20512;-66
2022/08/26 02:45:32;;;;;;;0.63;0.63;;;16.50;97.20;;;;;;5034021;28;20442;-66
2022/08/26 02:47:59;;;;;;;0.50;0.50;;;16.60;97.20;;;;;;5033975;28;20491;-66
2022/08/26 02:50:25;;;;;;;0.70;0.70;;;16.70;96.70;;;;;;5033899;28;20405;-66
2022/08/26 02:52:52;;;;;;;1.13;1.10;;;16.70;96.60;;;;;;5034005;28;20603;-66
2022/08/26 02:55:18;;;;;;;1.47;1.40;;;16.70;96.70;;;;;;5033864;28;20406;-66
2022/08/26 02:57:44;;;;;;;0.60;0.60;;;16.70;97.10;;;;;;5033761;28;20420;-66
2022/08/26 03:00:13;;;;;;;1.07;1.07;;;16.60;96.90;;;;;;5033881;28;20405;-66
2022/08/26 03:02:39;;;;;;;0.60;0.50;;;16.50;97.00;;;;;;5033699;28;20190;-66
2022/08/26 03:05:06;;;;;;;0.80;0.70;;;16.50;97.20;;;;;;5033530;28;20445;-66
2022/08/26 03:07:31;;;;;;;0.60;0.60;;;16.40;97.60;;;;;;5033535;28;20250;-66
2022/08/26 03:09:57;;;;;;;0.90;0.87;;;16.50;97.60;;;;;;5033829;28;20484;-66
2022/08/26 03:12:23;;;;;;;1.13;1.10;;;16.60;97.60;;;;;;5033750;28;20190;-66
2022/08/26 03:14:49;;;;;;;0.93;0.93;;;16.60;97.30;;;;;;5033721;28;20807;-66
2022/08/26 03:17:15;;;;;;;0.77;0.77;;;16.70;97.50;;;;;;5033335;28;20397;-66
2022/08/26 03:19:40;;;;;;;1.80;0.80;;;16.60;97.60;;;;;;5033690;28;20173;-66
2022/08/26 03:22:06;;;;;;;0.70;0.70;;;16.50;97.70;;;;;;5033362;28;20183;-66
2022/08/26 03:24:32;;;;;;;0.50;0.50;;;16.50;98.10;;;;;;5033425;28;20174;-66
2022/08/26 03:26:58;;;;;;;2.30;0.80;;;16.40;98.40;;;;;;5033321;28;20190;-66
2022/08/26 03:32:08;;;;;;;0.53;0.53;;;16.50;98.40;;;;;;5033351;28;20865;-66
2022/08/26 03:34:34;;;;;;;0.50;0.50;;;16.50;98.40;;;;;;5033311;28;20777;-66
2022/08/26 03:37:00;;;;;;;0.73;0.73;;;16.50;98.60;;;;;;5033356;28;20406;-66
2022/08/26 03:39:26;;;;;;;1.10;0.93;;;16.60;98.50;;;;;;5033402;28;20464;-66
2022/08/26 03:41:52;;;;;;;0.70;0.60;;;16.60;98.40;;;;;;5033731;28;20828;-66
2022/08/26 03:44:18;;;;;;;1.90;0.70;;;16.60;98.50;;;;;;5033317;28;20497;-66
2022/08/26 03:46:43;;;;;;;1.70;1.43;;;16.50;98.60;;;;;;5033025;28;20255;-66
2022/08/26 03:49:09;;;;;;;0.97;0.70;;;16.50;98.70;;;;;;5033463;28;20177;-66
2022/08/26 03:51:37;;;;;;;0.80;0.80;;;16.50;98.70;;;;;;5033102;28;20193;-66
2022/08/26 03:54:03;;;;;;;0.77;0.67;;;16.50;98.80;;;;;;5033267;28;20402;-66
2022/08/26 03:56:32;;;;;;;1.33;1.23;;;16.70;98.70;;;;;;5031781;28;20417;-66
2022/08/26 03:59:01;;;;;;;0.97;0.97;;;16.80;98.40;;;;;;5033107;28;20405;-66
2022/08/26 04:01:28;;;;;;;0.93;0.93;;;16.90;98.30;;;;;;5033210;28;20437;-66
2022/08/26 04:03:56;;;;;;;1.00;0.93;;;16.90;98.40;;;;;;5033086;28;20420;-66
2022/08/26 04:06:26;;;;;;;0.80;0.80;;;16.80;98.40;;;;;;5033269;28;20461;-66
2022/08/26 04:08:54;;;;;;;0.97;0.87;;;16.80;98.50;;;;;;5033145;28;20737;-66
2022/08/26 04:11:23;;;;;;;0.80;0.70;;;16.80;98.80;;;;;;5033168;28;20456;-66
2022/08/26 04:13:49;;;;;;;1.20;1.10;;;16.70;98.80;;;;;;5033066;28;20401;-66
2022/08/26 04:16:16;;;;;;;0.80;0.80;;;16.70;99.00;;;;;;5032890;28;20505;-66
2022/08/26 04:18:42;;;;;;;0.40;0.40;;;16.70;99.10;;;;;;5033007;28;20405;-66
2022/08/26 04:21:09;;;;;;;0.83;0.83;;;16.70;99.10;;;;;;5033086;28;20925;-66
2022/08/26 04:23:35;;;;;;;0.57;0.57;;;16.70;99.10;;;;;;5032959;28;20405;-66
2022/08/26 04:26:00;;;;;;;1.37;1.37;;;16.60;99.10;;;;;;5032759;28;20453;-66
2022/08/26 04:28:27;;;;;;;0.60;0.60;;;16.60;99.30;;;;;;5032996;28;20848;-66
2022/08/26 04:30:53;;;;;;;1.07;1.07;;;16.50;99.60;;;;;;5032532;28;20183;-66
2022/08/26 04:33:20;;;;;;;0.53;0.53;;;16.40;99.90;;;;;;5035024;28;20826;-66
2022/08/26 04:35:46;;;;;;;0.87;0.87;;;16.40;99.90;;;;;;5036477;28;20189;-66
2022/08/26 04:38:11;;;;;;;1.00;0.80;;;16.40;99.90;;;;;;5036512;28;20394;-66
2022/08/26 04:40:42;;;;;;;0.70;0.70;;;16.40;99.90;;;;;;5036477;28;20653;-66
2022/08/26 04:43:08;;;;;;;0.70;0.70;;;16.40;99.90;;;;;;5035966;28;20651;-66
2022/08/26 04:45:38;;;;;;;1.17;1.07;;;16.50;99.90;;;;;;5034856;28;20501;-65
2022/08/26 04:48:03;;;;;;;0.80;0.80;;;16.50;99.90;;;;;;5034553;28;20622;-65
2022/08/26 04:50:29;;;;;;;1.23;1.13;;;16.50;99.90;;;;;;5035214;28;20417;-65
2022/08/26 04:52:55;;;;;;;0.63;0.63;;;16.50;99.90;;;;;;5035199;28;20222;-66
2022/08/26 04:55:20;;;;;;;1.07;1.07;;;16.50;99.90;;;;;;5035734;28;20170;-66
2022/08/26 04:57:46;;;;;;;1.07;1.03;;;16.50;99.90;;;;;;5036098;28;20178;-66
2022/08/26 05:00:12;;;;;;;0.73;0.70;;;16.50;99.90;;;;;;5035921;28;20475;-65
2022/08/26 05:02:39;;;;;;;1.80;1.70;;;16.60;99.90;;;;;;5036007;28;20191;-66
2022/08/26 05:05:06;;;;;;;0.60;0.50;;;16.60;99.90;;;;;;5035861;28;20437;-65
2022/08/26 05:07:33;;;;;;;1.47;1.37;;;16.70;99.90;;;;;;5035538;28;20470;-66
2022/08/26 05:09:59;;;;;;;0.83;0.83;;;16.70;99.90;;;;;;5035633;28;20776;-66
2022/08/26 05:12:26;;;;;;;1.27;1.27;;;16.70;99.90;;;;;;5035631;28;20421;-66
2022/08/26 05:14:52;;;;;;;1.43;1.33;;;16.70;99.90;;;;;;5035065;28;20398;-65
2022/08/26 05:17:18;;;;;;;1.33;1.23;;;16.60;99.90;;;;;;5035128;28;20531;-66
2022/08/26 05:19:43;;;;;;;1.00;1.00;;;16.50;99.90;;;;;;5035718;28;20519;-65
2022/08/26 05:22:09;;;;;;;0.60;0.60;;;16.70;99.90;;;;;;5035643;28;20608;-66
2022/08/26 05:24:35;;;;;;;0.77;0.77;;;16.70;99.90;;;;;;5034987;28;20174;-66
2022/08/26 05:27:01;;;;;;;0.77;0.70;;;16.70;99.90;;;;;;5034901;28;20703;-65
2022/08/26 05:29:27;;;;;;;1.03;0.93;;;16.70;99.90;;;;;;5034214;28;20414;-66
2022/08/26 05:31:53;;;;;;;0.60;0.60;;;16.90;99.90;;;;;;5034765;28;20471;-66
2022/08/26 05:34:19;;;;;;;1.43;1.33;;;16.90;99.90;;;;;;5035138;28;20245;-68
2022/08/26 05:36:45;;;;;;;0.73;0.73;;;17.00;99.90;;;;;;5035445;28;20194;-66
2022/08/26 05:39:11;;;;;;;1.80;1.37;;;17.10;99.90;;;;;;5035990;28;20881;-65
2022/08/26 05:41:39;;;;;;;1.50;1.13;;;17.20;99.90;;;;;;5035153;28;20472;-65
2022/08/26 05:44:07;;;;;;;0.70;0.70;;;17.50;99.90;;;;;;5035294;28;20603;-66
2022/08/26 05:46:34;;;;;;;1.23;1.13;;;17.70;99.90;;;;;;5034965;28;20453;-66
2022/08/26 05:49:00;;;;;;;1.30;1.23;;;17.90;99.90;;;;;;5035177;28;20401;-66
2022/08/26 05:51:25;;;;;;;0.93;0.93;;;18.10;99.90;;;;;;5035275;28;20476;-66
2022/08/26 05:53:52;;;;;;;0.73;0.63;;;18.30;99.70;;;;;;5035013;28;20402;-66
2022/08/26 05:56:23;;;;;;;0.67;0.67;;;18.50;99.30;;;;;;5034989;28;20243;-65
2022/08/26 05:58:49;;;;;;;1.57;0.90;;;18.70;98.60;;;;;;5035157;28;20405;-67
2022/08/26 06:01:19;;;;;;;1.77;1.53;;;18.80;98.50;;;;;;5035236;28;20449;-67
2022/08/26 06:03:46;;;;;;;0.77;0.73;;;19.00;98.10;;;;;;5034844;28;20531;-67
2022/08/26 06:06:21;;;;;;;1.00;1.00;;;19.10;97.70;;;;;;5034935;28;20444;-66
2022/08/26 06:08:48;;;;;;;0.60;0.60;;;19.30;97.40;;;;;;5035444;28;20402;-65
2022/08/26 06:11:16;;;;;;;0.80;0.80;;;19.40;97.00;;;;;;5034812;28;20427;-66
2022/08/26 06:13:42;;;;;;;1.20;1.10;;;19.50;97.20;;;;;;5034916;28;20421;-65
2022/08/26 06:16:14;;;;;;;0.57;0.50;;;19.80;96.80;;;;;;5034669;28;20408;-65
2022/08/26 06:18:42;;;;;;;1.23;0.70;;;20.10;96.70;;;;;;5034193;28;20930;-65
2022/08/26 06:21:29;;;;;;;0.80;0.80;;;20.40;96.20;;;;;;5032781;28;20406;-65
2022/08/26 06:26:51;;;;;;;1.00;1.00;;;20.60;95.60;;;;;;5033453;28;20865;-65
2022/08/26 06:29:20;;;;;;;0.80;0.70;;;20.70;95.00;;;;;;5033491;28;20874;-66
2022/08/26 06:31:46;;;;;;;1.07;0.90;;;20.90;94.90;;;;;;5033204;28;20450;-65
2022/08/26 06:34:12;;;;;;;0.50;0.50;;;21.10;94.80;;;;;;5033233;28;20422;-66
2022/08/26 06:36:41;;;;;;;0.80;0.80;;;21.50;94.50;;;;;;5033084;28;20419;-65
2022/08/26 06:39:09;;;;;;;0.90;0.80;;;21.80;93.70;;;;;;5033532;28;20175;-66
2022/08/26 06:41:36;;;;;;;0.60;0.60;;;22.20;93.20;;;;;;5033002;28;20435;-66
2022/08/26 06:44:04;;;;;;;1.00;0.90;;;22.80;92.50;;;;;;5032462;28;20405;-66
2022/08/26 06:46:32;;;;;;;0.90;0.90;;;23.40;91.90;;;;;;5033904;28;20454;-66
2022/08/26 06:48:58;;;;;;;1.70;1.40;;;23.60;90.80;;;;;;5033927;28;20759;-66
2022/08/26 06:51:26;;;;;;;2.67;0.80;;;23.70;90.80;;;;;;5033904;28;20508;-65
2022/08/26 06:53:54;;;;;;;1.23;1.13;;;23.70;90.10;;;;;;5033933;28;20408;-66
2022/08/26 06:56:23;;;;;;;0.90;0.90;;;23.70;90.00;;;;;;5033410;28;20768;-67
2022/08/26 06:58:50;;;;;;;0.73;0.70;;;23.60;89.70;;;;;;5034427;28;20466;-65
2022/08/26 07:01:26;;;;;;;0.93;0.93;;;23.60;87.90;;;;;;5033869;28;20436;-66
2022/08/26 07:03:53;;;;;;;1.13;1.03;;;23.50;89.20;;;;;;5033909;28;20509;-65
2022/08/26 07:06:19;;;;;;;0.77;0.60;;;23.50;90.40;;;;;;5033180;28;20453;-66
2022/08/26 07:08:51;;;;;;;0.87;0.80;;;23.70;90.20;;;;;;5032840;28;20413;-66
2022/08/26 07:11:18;;;;;;;0.50;0.50;;;24.20;90.20;;;;;;5032853;28;20434;-66
2022/08/26 07:13:45;;;;;;;0.73;0.63;;;24.70;88.60;;;;;;5032877;28;20474;-66
2022/08/26 07:16:13;;;;;;;0.80;0.70;;;25.30;87.10;;;;;;5033101;28;20427;-66
2022/08/26 07:18:41;;;;;;;0.90;0.80;;;25.70;84.30;;;;;;5032305;28;20418;-66
2022/08/26 07:21:10;;;;;;;1.90;0.90;;;25.90;83.30;;;;;;5033692;28;20429;-66
2022/08/26 07:23:36;;;;;;;0.80;0.80;;;26.00;82.60;;;;;;5033558;28;20410;-66
2022/08/26 07:26:15;;;;;;;0.47;0.47;;;26.10;80.90;;;;;;5033445;28;20449;-66
2022/08/26 07:28:41;;;;;;;0.77;0.77;;;26.20;82.50;;;;;;5033625;28;20410;-66
2022/08/26 07:31:08;;;;;;;1.00;0.90;;;26.70;81.70;;;;;;5033411;28;20433;-65
2022/08/26 07:33:35;;;;;;;0.70;0.50;;;27.80;79.50;;;;;;5033488;28;20492;-67
2022/08/26 07:36:01;;;;;;;0.73;0.73;;;29.20;70.50;;;;;;5033413;28;20417;-67
2022/08/26 07:38:28;;;;;;;0.87;0.70;;;30.20;68.30;;;;;;5033471;28;20504;-66
2022/08/26 07:40:53;;;;;;;0.60;0.60;;;30.30;62.90;;;;;;5033207;28;20410;-66
2022/08/26 07:43:19;;;;;;;1.03;0.80;;;29.80;60.90;;;;;;5032359;28;20428;-67
2022/08/26 07:45:45;;;;;;;0.70;0.70;;;29.20;64.60;;;;;;5032300;28;20202;-66
2022/08/26 07:48:11;;;;;;;0.97;0.87;;;28.70;64.10;;;;;;5032516;28;20752;-66
2022/08/26 07:50:37;;;;;;;0.63;0.63;;;28.10;66.30;;;;;;5032074;28;20693;-66
2022/08/26 07:53:03;;;;;;;0.60;0.60;;;27.50;68.30;;;;;;5030911;28;20187;-66
2022/08/26 07:55:29;;;;;;;0.70;0.70;;;27.20;69.50;;;;;;5031604;28;20167;-65
2022/08/26 07:57:55;;;;;;;0.90;0.90;;;27.20;71.70;;;;;;5030996;28;20413;-66
2022/08/26 08:00:21;;;;;;;0.70;0.70;;;27.00;67.80;;;;;;5031657;28;20432;-66
2022/08/26 08:02:47;;;;;;;0.70;0.70;;;26.90;69.10;;;;;;5033165;28;20425;-66
2022/08/26 08:05:15;;;;;;;1.00;0.93;;;26.90;68.70;;;;;;5031361;28;20489;-66
2022/08/26 08:07:43;;;;;;;0.80;0.80;;;26.80;70.10;;;;;;5033207;28;20175;-67
2022/08/26 08:10:17;;;;;;;1.13;1.13;;;26.80;70.90;;;;;;5037001;28;20397;-66
2022/08/26 08:12:43;;;;;;;0.73;0.73;;;26.90;69.70;;;;;;5037031;28;20428;-66
2022/08/26 08:15:12;;;;;;;0.60;0.60;;;26.70;70.60;;;;;;5036971;28;20837;-66
2022/08/26 08:17:38;;;;;;;0.93;0.80;;;26.80;73.00;;;;;;5036845;28;20380;-66
2022/08/26 08:20:05;;;;;;;0.93;0.93;;;26.90;71.40;;;;;;5036938;28;20380;-67
2022/08/26 08:22:31;;;;;;;1.17;0.83;;;26.90;71.40;;;;;;5036772;28;20437;-66
2022/08/26 08:24:57;;;;;;;1.27;1.17;;;27.00;69.00;;;;;;5036699;28;20416;-66
2022/08/26 08:27:24;;;;;;;0.60;0.60;;;26.80;69.00;;;;;;5036596;28;20178;-66
2022/08/26 08:29:53;;;;;;;0.70;0.60;;;26.60;70.00;;;;;;5036838;28;20171;-66
2022/08/26 08:32:19;;;;;;;0.80;0.70;;;26.80;69.20;;;;;;5036383;28;20445;-67
2022/08/26 08:34:45;;;;;;;0.87;0.80;;;26.80;69.20;;;;;;5036439;28;20463;-66
2022/08/26 08:37:11;;;;;;;0.90;0.57;;;26.90;69.00;;;;;;5036380;28;20906;-66
2022/08/26 08:39:37;;;;;;;0.83;0.83;;;27.10;68.70;;;;;;5036180;28;20175;-66
2022/08/26 08:42:48;;;;;;;1.10;0.77;;;27.30;67.30;;;;;;5036289;28;20897;-66
2022/08/26 08:45:29;;;;;;;1.30;1.20;;;27.40;66.80;;;;;;4975524;28;20255;-66
2022/08/26 08:48:00;;;;;;;1.10;0.97;;;27.20;67.30;;;;;;5028287;28;20457;-66
2022/08/26 08:50:44;;;;;;;0.73;0.73;;;26.90;68.20;;;;;;5034730;28;20779;-66
2022/08/26 08:53:16;;;;;;;1.07;0.97;;;27.10;68.70;;;;;;5035159;28;20430;-66
2022/08/26 08:55:49;;;;;;;1.00;1.00;;;27.20;68.00;;;;;;5035536;28;20397;-66
2022/08/26 08:58:19;;;;;;;1.00;0.77;;;27.30;67.00;;;;;;5035685;28;20443;-66
2022/08/26 09:01:03;;;;;;;0.90;0.90;;;27.20;67.00;;;;;;5035581;28;20413;-66
2022/08/26 09:03:46;;;;;;;0.60;0.60;;;26.90;68.80;;;;;;5036122;28;20794;-67
2022/08/26 09:06:19;;;;;;;1.20;1.13;;;26.80;69.30;;;;;;5035916;28;20467;-66
2022/08/26 09:08:49;;;;;;;1.03;1.00;;;26.90;68.80;;;;;;5036122;28;20837;-66
2022/08/26 09:11:16;;;;;;;1.33;1.33;;;27.00;68.90;;;;;;5035842;28;20444;-66
2022/08/26 09:13:48;;;;;;;0.70;0.60;;;27.00;68.20;;;;;;5035820;28;20406;-66
2022/08/26 09:16:16;;;;;;;1.57;1.47;;;26.90;68.10;;;;;;5034442;28;20914;-67
2022/08/26 09:19:13;;;;;;;1.07;0.93;;;26.90;68.60;;;;;;5035585;28;20412;-66
2022/08/26 09:21:40;;;;;;;0.73;0.73;;;27.30;67.50;;;;;;5035411;28;20430;-66
2022/08/26 09:24:07;;;;;;;1.23;0.60;;;27.50;66.50;;;;;;5036314;28;20406;-66
2022/08/26 09:26:38;;;;;;;0.77;0.77;;;27.80;66.20;;;;;;5035377;28;20811;-68
2022/08/26 09:29:09;;;;;;;1.00;0.90;;;27.90;66.30;;;;;;5035501;28;20405;-66
2022/08/26 09:31:40;;;;;;;0.70;0.70;;;28.00;66.10;;;;;;5035583;28;20461;-66
2022/08/26 09:34:14;;;;;;;0.73;0.70;;;28.10;65.30;;;;;;5035418;28;20423;-66
2022/08/26 09:36:56;;;;;;;1.00;1.00;;;28.10;64.60;;;;;;5035425;28;20869;-66
2022/08/26 09:39:38;;;;;;;1.00;1.00;;;28.00;65.90;;;;;;5035788;28;20410;-66
2022/08/26 09:42:19;;;;;;;1.13;0.90;;;27.70;65.70;;;;;;5035182;28;20476;-66
2022/08/26 09:45:03;;;;;;;11.00;1.23;;;27.50;66.00;;;;;;5035421;28;20813;-67
2022/08/26 09:47:44;;;;;;;0.50;0.50;;;27.30;66.80;;;;;;5034955;28;20909;-66
2022/08/26 09:50:25;;;;;;;0.63;0.63;;;27.10;67.30;;;;;;5035036;28;20401;-65
2022/08/26 09:53:06;;;;;;;0.97;0.80;;;26.80;68.20;;;;;;5035060;28;20433;-66
2022/08/26 09:55:33;;;;;;;0.70;0.70;;;26.50;69.70;;;;;;5034989;28;20427;-66
2022/08/26 09:57:59;;;;;;;1.33;1.23;;;26.40;69.90;;;;;;5034347;28;20821;-65
2022/08/26 10:00:40;;;;;;;2.30;0.93;;;26.20;70.50;;;;;;5035032;28;20409;-67
2022/08/26 10:03:10;;;;;;;0.70;0.70;;;26.20;71.20;;;;;;5034538;28;20191;-66
2022/08/26 10:05:53;;;;;;;1.00;1.00;;;26.40;70.00;;;;;;5034921;28;20448;-66
2022/08/26 10:08:27;;;;;;;0.57;0.57;;;26.70;69.00;;;;;;5035452;28;20414;-67
2022/08/26 10:10:55;;;;;;;2.03;1.93;;;27.00;69.30;;;;;;5034982;28;20819;-66
2022/08/26 10:13:30;;;;;;;0.87;0.87;;;27.20;69.20;;;;;;5034975;28;20780;-67
2022/08/26 10:16:02;;;;;;;1.00;1.00;;;27.40;67.90;;;;;;5034683;28;20368;-67
2022/08/26 10:18:34;;;;;;;1.00;0.90;;;27.40;67.30;;;;;;5035025;28;20878;-67
2022/08/26 10:21:24;;;;;;;1.17;0.73;;;27.40;67.00;;;;;;5035111;28;20460;-67
2022/08/26 10:23:54;;;;;;;4.20;0.93;;;27.50;67.60;;;;;;5034819;28;20497;-66
2022/08/26 10:26:19;;;;;;;0.73;0.73;;;27.40;68.20;;;;;;5034594;28;20552;-66
2022/08/26 10:29:13;;;;;;;0.70;0.70;;;27.50;68.30;;;;;;5033911;28;20952;-67
2022/08/26 10:31:49;;;;;;;0.77;0.77;;;27.40;67.50;;;;;;5032093;28;20199;-68
2022/08/26 10:34:17;;;;;;;1.27;1.17;;;27.60;68.10;;;;;;5032395;28;20413;-67
2022/08/26 10:36:56;;;;;;;0.80;0.80;;;27.90;68.30;;;;;;5034185;28;20506;-67
2022/08/26 10:39:49;;;;;;;1.40;1.30;;;27.90;66.00;;;;;;5034313;28;20405;-67
2022/08/26 10:42:25;;;;;;;1.43;1.33;;;28.20;67.60;;;;;;5034210;28;20436;-66
2022/08/26 10:44:57;;;;;;;1.10;1.10;;;28.70;66.80;;;;;;5032408;28;20949;-68
2022/08/26 10:47:43;;;;;;;1.80;0.93;;;28.90;66.10;;;;;;5034035;28;20402;-67
2022/08/26 10:50:10;;;;;;;1.00;0.90;;;29.10;65.10;;;;;;5034130;28;20398;-68
2022/08/26 10:52:39;;;;;;;0.87;0.87;;;29.20;63.80;;;;;;5033817;28;20940;-67
2022/08/26 10:55:13;;;;;;;0.50;0.50;;;29.30;64.80;;;;;;5032736;28;20429;-67
2022/08/26 10:57:48;;;;;;;1.40;1.30;;;29.40;63.40;;;;;;5032362;28;20788;-67
2022/08/26 11:03:30;;;;;;;0.90;0.90;;;29.50;62.50;;;;;;5032522;28;20449;-67
2022/08/26 11:06:35;;;;;;;0.73;0.73;;;29.40;64.00;;;;;;5033588;28;20782;-67
2022/08/26 11:09:03;;;;;;;0.90;0.80;;;29.60;64.70;;;;;;4973009;28;21077;-67
2022/08/26 11:11:41;;;;;;;0.73;0.73;;;29.80;62.90;;;;;;4972869;28;20439;-67
2022/08/26 11:14:18;;;;;;;1.33;1.23;;;29.90;62.60;;;;;;5007476;28;20420;-68
2022/08/26 11:16:46;;;;;;;0.90;0.90;;;29.90;62.90;;;;;;5033501;28;20491;-67
2022/08/26 11:19:37;;;;;;;1.20;1.17;;;30.10;62.70;;;;;;5033741;28;20412;-67
2022/08/26 11:22:17;;;;;;;0.87;0.87;;;30.10;63.20;;;;;;5033510;28;20433;-66
2022/08/26 11:25:04;;;;;;;1.00;1.00;;;30.10;61.80;;;;;;5033741;28;20412;-67
2022/08/26 11:27:36;;;;;;;1.80;1.43;;;30.10;64.10;;;;;;5033368;28;20417;-67
2022/08/26 11:30:16;;;;;;;0.83;0.77;;;29.90;61.60;;;;;;5033464;28;20409;-67
2022/08/26 11:32:42;;;;;;;1.17;1.17;;;29.60;65.30;;;;;;5033302;28;20971;-67
2022/08/26 11:35:11;;;;;;;0.83;0.77;;;29.50;62.90;;;;;;5033673;28;20414;-67
2022/08/26 11:37:44;;;;;;;0.80;0.80;;;29.60;65.20;;;;;;5033430;28;20197;-67
2022/08/26 11:40:30;;;;;;;1.00;1.00;;;29.80;63.20;;;;;;5033507;28;20444;-67
2022/08/26 11:43:05;;;;;;;1.23;1.13;;;29.80;62.00;;;;;;5036628;28;20920;-67
2022/08/26 11:45:37;;;;;;;1.10;1.00;;;29.90;61.30;;;;;;5037528;28;20452;-68
2022/08/26 11:48:35;;;;;;;1.90;0.80;;;30.00;62.50;;;;;;5037440;28;20433;-68
2022/08/26 11:51:11;;;;;;;0.87;0.87;;;29.90;62.60;;;;;;5037210;28;20406;-66
2022/08/26 11:53:43;;;;;;;0.83;0.83;;;29.70;61.40;;;;;;5037313;28;20816;-68
2022/08/26 11:56:27;;;;;;;1.10;1.10;;;29.60;64.40;;;;;;5037131;28;20413;-68
2022/08/26 11:58:56;;;;;;;0.70;0.70;;;29.50;64.70;;;;;;5037370;28;20405;-67
2022/08/26 12:01:51;;;;;;;1.10;0.87;;;29.50;63.40;;;;;;5037056;28;20430;-67
2022/08/26 12:04:27;;;;;;;0.80;0.80;;;29.40;63.90;;;;;;5037135;28;20476;-67
2022/08/26 12:06:56;;;;;;;1.47;1.00;;;29.10;63.80;;;;;;5036957;28;20491;-67
2022/08/26 12:09:29;;;;;;;0.83;0.83;;;29.00;65.00;;;;;;5035274;28;20483;-67
2022/08/26 12:12:20;;;;;;;1.00;0.80;;;29.00;65.80;;;;;;5035556;28;20742;-67
2022/08/26 12:14:46;;;;;;;1.37;1.20;;;28.90;65.80;;;;;;5036626;28;20948;-67
2022/08/26 12:17:24;;;;;;;2.17;0.87;;;29.00;65.70;;;;;;5036690;28;20441;-68
2022/08/26 12:19:50;;;;;;;1.00;0.90;;;29.00;65.50;;;;;;5037188;28;20183;-67
2022/08/26 12:22:24;;;;;;;0.80;0.80;;;28.60;65.60;;;;;;5036668;28;20470;-67
2022/08/26 12:25:02;;;;;;;1.00;1.00;;;28.40;65.70;;;;;;5036973;28;20413;-67
2022/08/26 12:27:33;;;;;;;0.80;0.80;;;28.30;66.90;;;;;;5036492;28;20482;-67
2022/08/26 12:30:10;;;;;;;1.03;0.93;;;28.20;66.90;;;;;;5036767;28;20845;-67
2022/08/26 12:32:44;;;;;;;1.10;1.10;;;28.20;67.20;;;;;;5036449;28;20457;-67
2022/08/26 12:35:12;;;;;;;0.87;0.87;;;28.00;68.60;;;;;;5036780;28;20416;-66
2022/08/26 12:37:44;;;;;;;1.20;1.20;;;28.20;69.60;;;;;;5036498;28;20408;-67
2022/08/26 12:40:29;;;;;;;0.90;0.90;;;28.40;68.70;;;;;;5036667;28;20452;-67
2022/08/26 12:42:57;;;;;;;1.10;1.07;;;28.60;69.20;;;;;;5036307;28;20736;-67
2022/08/26 12:45:33;;;;;;;0.60;0.60;;;28.90;67.50;;;;;;5036365;28;20445;-67
2022/08/26 12:48:09;;;;;;;2.50;0.90;;;29.00;66.00;;;;;;5036232;28;20409;-68
2022/08/26 12:50:44;;;;;;;1.90;0.77;;;29.10;67.30;;;;;;5036438;28;20413;-68
2022/08/26 12:53:10;;;;;;;0.80;0.80;;;29.40;67.20;;;;;;5035367;28;20421;-67
2022/08/26 12:55:41;;;;;;;1.37;1.27;;;29.40;65.90;;;;;;5035995;28;20421;-68
2022/08/26 12:58:12;;;;;;;0.70;0.70;;;29.50;65.20;;;;;;5036083;28;20170;-67
2022/08/26 13:00:40;;;;;;;1.57;0.97;;;29.50;65.10;;;;;;5034935;28;20425;-67
2022/08/26 13:03:36;;;;;;;0.73;0.73;;;29.50;66.20;;;;;;5035197;28;20426;-67
2022/08/26 13:06:28;;;;;;;0.97;0.97;;;29.50;66.20;;;;;;5035047;28;20463;-67
2022/08/26 13:09:01;;;;;;;1.13;1.03;;;29.50;66.00;;;;;;5036296;28;20402;-67
2022/08/26 13:11:28;;;;;;;1.00;0.73;;;29.60;65.70;;;;;;5035775;28;20430;-67
2022/08/26 13:13:58;;;;;;;1.00;0.80;;;29.70;64.50;;;;;;5035727;28;20464;-67